Trout Lake, MI (49793)

2:53 PM EDT on August 04, 2015 (GMT -0400)
Luce County | | Change Station
CLOSE
Current Station
Airport
Location: Newberry,
Elevation: 869 ft
Nearby Weather Stations

Elev 869 ft 46.31 °N, 85.46 °W | Updated 19 minutes ago

Overcast
Overcast
66 °F
Feels Like 66 °F
N
14
Wind Variable Wind from NW
Gusts 20 mph

Today
High -- | Low -- °F
--% Chance of Precip.
Yesterday
High -- | Low -- °F
Precip. -- in
6:25 AM 9:06 PM
Waning Gibbous, 75% visible
Pressure 29.92 in
Visibility 10.0 miles
Clouds Overcast 4200 ft
Dew Point 49 °F
Humidity 53%
Rainfall 0.00 in
Snow Depth Not available.
UV 3 out of 12
Pollen 6.30 out of 12
Air Quality Not available.
Flu Activity Not available.
METAR KERY 041834Z AUTO 32012G17KT 10SM OVC042 19/09 A2992 RMK AO2 T01900092

More Conditions Fewer Conditions

Pressure 29.92 in
Visibility 10.0 miles
Clouds Overcast 4200 ft
Dew Point 49 °F
Humidity 53%
Rainfall 0.00 in
Snow Depth Not available.
UV 3 out of 12
Pollen 6.30 out of 12
Air Quality Not available.
Flu Activity Not available.
METAR KERY 041834Z AUTO 32012G17KT 10SM OVC042 19/09 A2992 RMK AO2 T01900092

More Conditions Fewer Conditions

Nowcast | as of 1:00 PM EDT on August 4, 2015

At 2 PM...mostly cloudy. Temperature 62. Northwest winds 13 mph. At 4 PM...partly cloudy. Temperature 62. Northwest winds 15 mph. At 6 PM...partly cloudy. Temperature 61. Northwest winds 16 mph. At 8 PM...partly cloudy. Temperature 59. Northwest winds 14 mph.

×

10-Day Weather Forecast

×

Almanac

Astronomy

Aug. 04, 2015 Rise Set
Actual Time
Civil Twilight
Nautical Twilight
Astronomical Twilight
Moon
Length of Visible Light
Length of Day
Tomorrow will be .
, % of the Moon is Illuminated

Today's Extremes

State Highs State Lows

Community

WunderPhotos

Upload Photos

1,843,937 photos uploaded!

WunderBlogs® & News

Nearby

Air Quality

  Air Quality AQ Index Pollutant
Not available.

Snow Depth

Station Depth Elevation

Earthquake Activity

City Distance Mag. Time & Date
Minimum magnitude displayed is 2.5.

Coastal Water Temperatures

Place Temperature

Stations

Nearby Weather Stations

Station Location Temp. Windchill Dew Point Humidity Wind Precip. Elev Updated Type